Time;durP1;ratioP1;P1;durP2;ratioP2;P2;SDS_P1;SDS_P2;PMS_P1;PMS_P2;Temp;Humidity;BMP_temperature;BMP_pressure;BME280_temperature;BME280_humidity;BME280_pressure;Samples;Min_cycle;Max_cycle;Signal;HPM_P1;HPM_P2
2024/02/24 00:00:24;;;;;;;1999.90;999.90;;;;;;;;;;6184472;23;20027;-79
2024/02/24 00:02:50;;;;;;;1999.90;999.90;;;;;;;;;;6185021;23;20344;-78
2024/02/24 00:05:17;;;;;;;1999.90;999.90;;;;;;;;;;6185168;23;20025;-79
2024/02/24 00:07:45;;;;;;;1999.90;999.90;;;;;;;;;;6184986;23;20023;-79
2024/02/24 00:10:12;;;;;;;1999.90;999.90;;;;;;;;;;6185836;23;20096;-78
2024/02/24 00:12:38;;;;;;;1999.90;999.90;;;;;;;;;;6185585;23;20039;-79
2024/02/24 00:15:06;;;;;;;1999.90;999.90;;;;;;;;;;6185312;23;20025;-78
2024/02/24 00:17:32;;;;;;;1999.90;999.90;;;;;;;;;;6185922;23;20096;-79
2024/02/24 00:19:59;;;;;;;1999.90;999.90;;;;;;;;;;6185993;23;20095;-78
2024/02/24 00:22:30;;;;;;;1999.90;999.90;;;;;;;;;;6185442;23;20027;-79
2024/02/24 00:24:58;;;;;;;1999.90;999.90;;;;;;;;;;6185525;23;20025;-78
2024/02/24 00:27:25;;;;;;;1999.90;999.90;;;;;;;;;;6185559;23;20017;-79
2024/02/24 00:29:51;;;;;;;1999.90;999.90;;;;;;;;;;6184921;23;20456;-78
2024/02/24 00:32:18;;;;;;;1999.90;999.90;;;;;;;;;;6184749;23;20021;-79
2024/02/24 00:34:45;;;;;;;1999.90;999.90;;;;;;;;;;6184565;23;20035;-80
2024/02/24 00:37:11;;;;;;;1999.90;999.90;;;;;;;;;;6185113;23;20021;-78
2024/02/24 00:39:38;;;;;;;1999.90;999.90;;;;;;;;;;6185228;23;20031;-79
2024/02/24 00:42:06;;;;;;;1999.90;999.90;;;;;;;;;;6185292;23;20100;-79
2024/02/24 00:44:33;;;;;;;1999.90;999.90;;;;;;;;;;6185589;23;20467;-79
2024/02/24 00:47:00;;;;;;;1999.90;999.90;;;;;;;;;;6184110;23;20024;-79
2024/02/24 00:49:26;;;;;;;1999.90;999.90;;;;;;;;;;6183697;23;20115;-79
2024/02/24 00:51:53;;;;;;;1999.90;999.90;;;;;;;;;;6183676;23;20021;-78
2024/02/24 00:54:19;;;;;;;1999.90;999.90;;;;;;;;;;6183128;23;20031;-80
2024/02/24 00:56:46;;;;;;;1999.90;999.90;;;;;;;;;;6182339;23;20023;-79
2024/02/24 00:59:14;;;;;;;1999.90;999.90;;;;;;;;;;6182067;23;20021;-78
2024/02/24 01:01:40;;;;;;;1999.90;999.90;;;;;;;;;;6181879;23;20029;-80
2024/02/24 01:04:07;;;;;;;1999.90;999.90;;;;;;;;;;6182355;23;20021;-78
2024/02/24 01:06:33;;;;;;;1999.90;999.90;;;;;;;;;;6181915;23;20029;-79
2024/02/24 01:09:00;;;;;;;1999.90;999.90;;;;;;;;;;6181980;23;20103;-79
2024/02/24 01:11:26;;;;;;;1999.90;999.90;;;;;;;;;;6182275;23;20333;-80
2024/02/24 01:13:53;;;;;;;1999.90;999.90;;;;;;;;;;6182135;23;20021;-78
2024/02/24 01:16:21;;;;;;;1999.90;999.90;;;;;;;;;;6182163;23;20040;-79
2024/02/24 01:18:48;;;;;;;1999.90;999.90;;;;;;;;;;6182031;23;20021;-80
2024/02/24 01:21:14;;;;;;;1999.90;999.90;;;;;;;;;;6182521;23;20096;-79
2024/02/24 01:23:41;;;;;;;1999.90;999.90;;;;;;;;;;6182804;23;20021;-79
2024/02/24 01:26:07;;;;;;;1999.90;999.90;;;;;;;;;;6182458;23;20103;-79
2024/02/24 01:28:36;;;;;;;1999.90;999.90;;;;;;;;;;6182763;23;20052;-78
2024/02/24 01:31:03;;;;;;;1999.90;999.90;;;;;;;;;;6182170;23;20025;-81
2024/02/24 01:33:30;;;;;;;1999.90;999.90;;;;;;;;;;6182886;23;20104;-82
2024/02/24 01:35:57;;;;;;;1999.90;999.90;;;;;;;;;;6183224;23;20025;-78
2024/02/24 01:38:23;;;;;;;1999.90;999.90;;;;;;;;;;6185824;23;20100;-80
2024/02/24 01:40:50;;;;;;;1999.90;999.90;;;;;;;;;;6186959;23;20021;-80
2024/02/24 01:43:24;;;;;;;1999.90;999.90;;;;;;;;;;6185325;23;20448;-78
2024/02/24 01:45:51;;;;;;;1999.90;999.90;;;;;;;;;;6182702;23;20021;-78
2024/02/24 01:48:18;;;;;;;1999.90;999.90;;;;;;;;;;6182936;23;20017;-78
2024/02/24 01:50:47;;;;;;;1999.90;999.90;;;;;;;;;;6182710;23;20464;-79
2024/02/24 01:53:15;;;;;;;1999.90;999.90;;;;;;;;;;6182968;23;20017;-78
2024/02/24 01:55:41;;;;;;;1999.90;999.90;;;;;;;;;;6182504;23;20025;-79
2024/02/24 01:58:09;;;;;;;1999.90;999.90;;;;;;;;;;6182072;23;20104;-79
2024/02/24 02:00:35;;;;;;;1999.90;999.90;;;;;;;;;;6182253;23;20021;-79
2024/02/24 02:03:02;;;;;;;1999.90;999.90;;;;;;;;;;6182160;23;20021;-78
2024/02/24 02:05:28;;;;;;;1999.90;999.90;;;;;;;;;;6182485;23;20031;-79
2024/02/24 02:07:56;;;;;;;1999.90;999.90;;;;;;;;;;6182424;23;20100;-79
2024/02/24 02:10:23;;;;;;;1999.90;999.90;;;;;;;;;;6182185;23;20017;-79
2024/02/24 02:12:49;;;;;;;1999.90;999.90;;;;;;;;;;6182446;23;20043;-78
2024/02/24 02:15:16;;;;;;;1999.90;999.90;;;;;;;;;;6182208;23;20021;-78
2024/02/24 02:17:42;;;;;;;1999.90;999.90;;;;;;;;;;6181594;23;20468;-78
2024/02/24 02:20:08;;;;;;;1999.90;999.90;;;;;;;;;;6182433;23;20096;-80
2024/02/24 02:22:36;;;;;;;1999.90;999.90;;;;;;;;;;6181959;23;20491;-79
2024/02/24 02:25:03;;;;;;;1999.90;999.90;;;;;;;;;;6181899;23;20036;-78
2024/02/24 02:27:29;;;;;;;1999.90;999.90;;;;;;;;;;6182224;23;20059;-79
2024/02/24 02:29:59;;;;;;;1999.90;999.90;;;;;;;;;;6181985;23;20027;-78
2024/02/24 02:32:26;;;;;;;1999.90;999.90;;;;;;;;;;6181640;23;20456;-78
2024/02/24 02:34:52;;;;;;;1999.90;999.90;;;;;;;;;;6181770;23;20027;-79
2024/02/24 02:37:19;;;;;;;1999.90;999.90;;;;;;;;;;6182105;23;20100;-79
2024/02/24 02:39:47;;;;;;;1999.90;999.90;;;;;;;;;;6181348;23;20064;-78
2024/02/24 02:42:13;;;;;;;1999.90;999.90;;;;;;;;;;6181725;23;20478;-80
2024/02/24 02:44:40;;;;;;;1999.90;999.90;;;;;;;;;;6182109;23;20056;-79
2024/02/24 02:47:06;;;;;;;1999.90;999.90;;;;;;;;;;6182077;23;20031;-80
2024/02/24 02:49:33;;;;;;;1999.90;999.90;;;;;;;;;;6181652;23;20547;-78
2024/02/24 02:52:00;;;;;;;1999.90;999.90;;;;;;;;;;6182397;23;20207;-78
2024/02/24 02:54:26;;;;;;;1999.90;999.90;;;;;;;;;;6182155;23;20048;-79
2024/02/24 02:56:54;;;;;;;1999.90;999.90;;;;;;;;;;6182172;23;20021;-79
2024/02/24 02:59:21;;;;;;;1999.90;999.90;;;;;;;;;;6182275;23;20482;-78
2024/02/24 03:01:48;;;;;;;1999.90;999.90;;;;;;;;;;6182063;23;20017;-78
2024/02/24 03:04:15;;;;;;;1999.90;999.90;;;;;;;;;;6182499;23;20029;-78
2024/02/24 03:06:42;;;;;;;1999.90;999.90;;;;;;;;;;6182456;23;20099;-78
2024/02/24 03:09:08;;;;;;;1999.90;999.90;;;;;;;;;;6181911;23;20155;-79
2024/02/24 03:11:35;;;;;;;1999.90;999.90;;;;;;;;;;6182671;23;20056;-79
2024/02/24 03:14:04;;;;;;;1999.90;999.90;;;;;;;;;;6182644;23;20036;-79
2024/02/24 03:16:30;;;;;;;1999.90;999.90;;;;;;;;;;6182275;23;20025;-78
2024/02/24 03:18:57;;;;;;;1999.90;999.90;;;;;;;;;;6182559;23;20021;-81
2024/02/24 03:21:27;;;;;;;1999.90;999.90;;;;;;;;;;6182672;23;20025;-79
2024/02/24 03:23:53;;;;;;;1999.90;999.90;;;;;;;;;;6181972;23;20448;-78
2024/02/24 03:26:20;;;;;;;1999.90;999.90;;;;;;;;;;6181536;23;20032;-80
2024/02/24 03:28:46;;;;;;;1999.90;999.90;;;;;;;;;;6181372;23;20025;-78
2024/02/24 03:31:14;;;;;;;1999.90;999.90;;;;;;;;;;6181148;23;20483;-79
2024/02/24 03:33:41;;;;;;;1999.90;999.90;;;;;;;;;;6181091;23;20474;-79
2024/02/24 03:36:12;;;;;;;1999.90;999.90;;;;;;;;;;6181419;23;20328;-78
2024/02/24 03:38:39;;;;;;;1999.90;999.90;;;;;;;;;;6182358;23;20021;-79
2024/02/24 03:41:06;;;;;;;1999.90;999.90;;;;;;;;;;6182156;23;20023;-78
2024/02/24 03:43:32;;;;;;;1999.90;999.90;;;;;;;;;;6181929;23;20059;-78
2024/02/24 03:45:58;;;;;;;1999.90;999.90;;;;;;;;;;6181988;23;20025;-78
2024/02/24 03:48:26;;;;;;;1999.90;999.90;;;;;;;;;;6182273;23;20021;-79
2024/02/24 03:50:53;;;;;;;1999.90;999.90;;;;;;;;;;6182272;23;20329;-78
2024/02/24 03:53:21;;;;;;;1999.90;999.90;;;;;;;;;;6182243;23;20104;-80
2024/02/24 03:55:47;;;;;;;1999.90;999.90;;;;;;;;;;6181683;23;20025;-78
2024/02/24 03:58:14;;;;;;;1999.90;999.90;;;;;;;;;;6182204;23;20096;-78
2024/02/24 04:00:40;;;;;;;1999.90;999.90;;;;;;;;;;6182037;23;20028;-79
2024/02/24 04:03:07;;;;;;;1999.90;999.90;;;;;;;;;;6181683;23;20017;-78
2024/02/24 04:05:35;;;;;;;1999.90;999.90;;;;;;;;;;6182168;23;20063;-80
2024/02/24 04:08:01;;;;;;;1999.90;999.90;;;;;;;;;;6182333;23;20017;-79
2024/02/24 04:10:28;;;;;;;1999.90;999.90;;;;;;;;;;6182369;23;20440;-79
2024/02/24 04:12:54;;;;;;;1999.90;999.90;;;;;;;;;;6182264;23;20028;-78
2024/02/24 04:15:21;;;;;;;1999.90;999.90;;;;;;;;;;6181751;23;20332;-78
2024/02/24 04:17:48;;;;;;;1999.90;999.90;;;;;;;;;;6182015;23;20025;-79
2024/02/24 04:20:15;;;;;;;1999.90;999.90;;;;;;;;;;6182153;23;20104;-79
2024/02/24 04:22:47;;;;;;;1999.90;999.90;;;;;;;;;;6182733;23;20468;-79
2024/02/24 04:25:13;;;;;;;1999.90;999.90;;;;;;;;;;6184131;23;20039;-79
2024/02/24 04:27:40;;;;;;;1999.90;999.90;;;;;;;;;;6183761;23;20100;-79
2024/02/24 04:30:07;;;;;;;1999.90;999.90;;;;;;;;;;6184233;23;20103;-79
2024/02/24 04:32:34;;;;;;;1999.90;999.90;;;;;;;;;;6184042;23;20402;-79
2024/02/24 04:35:00;;;;;;;1999.90;999.90;;;;;;;;;;6184160;23;20096;-79
2024/02/24 04:37:27;;;;;;;1999.90;999.90;;;;;;;;;;6183517;23;20021;-79
2024/02/24 04:39:55;;;;;;;1999.90;999.90;;;;;;;;;;6183864;23;20016;-78
2024/02/24 04:42:21;;;;;;;1999.90;999.90;;;;;;;;;;6183752;23;20025;-79
2024/02/24 04:44:49;;;;;;;1999.90;999.90;;;;;;;;;;6183728;23;20017;-78
2024/02/24 04:47:16;;;;;;;1999.90;999.90;;;;;;;;;;6183566;23;20029;-79
2024/02/24 04:49:42;;;;;;;1999.90;999.90;;;;;;;;;;6183670;23;20032;-81
2024/02/24 04:52:09;;;;;;;1999.90;999.90;;;;;;;;;;6183733;23;20013;-81
2024/02/24 04:54:35;;;;;;;1999.90;999.90;;;;;;;;;;6183623;23;20442;-79
2024/02/24 04:57:04;;;;;;;1999.90;999.90;;;;;;;;;;6183581;23;20032;-79
2024/02/24 04:59:30;;;;;;;1999.90;999.90;;;;;;;;;;6183699;23;20024;-79
2024/02/24 05:01:57;;;;;;;1999.90;999.90;;;;;;;;;;6183750;23;20017;-79
2024/02/24 05:04:23;;;;;;;1999.90;999.90;;;;;;;;;;6183483;23;20027;-79
2024/02/24 05:06:50;;;;;;;1999.90;999.90;;;;;;;;;;6183313;23;20029;-79
2024/02/24 05:09:16;;;;;;;1999.90;999.90;;;;;;;;;;6183810;23;20549;-79
2024/02/24 05:11:43;;;;;;;1999.90;999.90;;;;;;;;;;6182994;23;20096;-78
2024/02/24 05:14:11;;;;;;;1999.90;999.90;;;;;;;;;;6183812;23;20021;-81
2024/02/24 05:16:40;;;;;;;1999.90;999.90;;;;;;;;;;6183751;23;20025;-79
2024/02/24 05:19:07;;;;;;;1999.90;999.90;;;;;;;;;;6183632;23;20028;-79
2024/02/24 05:21:33;;;;;;;1999.90;999.90;;;;;;;;;;6183628;23;20031;-78
2024/02/24 05:24:06;;;;;;;1999.90;999.90;;;;;;;;;;6183732;23;20021;-79
2024/02/24 05:26:33;;;;;;;1999.90;999.90;;;;;;;;;;6183538;23;20025;-78
2024/02/24 05:28:59;;;;;;;1999.90;999.90;;;;;;;;;;6183731;23;20052;-81
2024/02/24 05:31:27;;;;;;;1999.90;999.90;;;;;;;;;;6183952;23;20018;-79
2024/02/24 05:33:54;;;;;;;1999.90;999.90;;;;;;;;;;6184021;23;20023;-79
2024/02/24 05:36:21;;;;;;;1999.90;999.90;;;;;;;;;;6183814;23;20028;-79
2024/02/24 05:38:47;;;;;;;1999.90;999.90;;;;;;;;;;6183936;23;20100;-79
2024/02/24 05:41:14;;;;;;;1999.90;999.90;;;;;;;;;;6183763;23;20452;-80
2024/02/24 05:43:41;;;;;;;1999.90;999.90;;;;;;;;;;6183816;23;20547;-79
2024/02/24 05:46:08;;;;;;;1999.90;999.90;;;;;;;;;;6183903;23;20021;-79
2024/02/24 05:48:36;;;;;;;1999.90;999.90;;;;;;;;;;6183292;23;20021;-78
2024/02/24 05:51:04;;;;;;;1999.90;999.90;;;;;;;;;;6183389;23;20029;-78
2024/02/24 05:53:36;;;;;;;1999.90;999.90;;;;;;;;;;6183696;23;20035;-78
2024/02/24 05:56:03;;;;;;;1999.90;999.90;;;;;;;;;;6182994;23;20039;-79
2024/02/24 05:58:29;;;;;;;1999.90;999.90;;;;;;;;;;6183683;23;20021;-82
2024/02/24 06:00:56;;;;;;;1999.90;999.90;;;;;;;;;;6183391;23;20356;-79
2024/02/24 06:03:22;;;;;;;1999.90;999.90;;;;;;;;;;6183143;23;20466;-78
2024/02/24 06:05:50;;;;;;;1999.90;999.90;;;;;;;;;;6183744;23;20056;-79
2024/02/24 06:08:17;;;;;;;1999.90;999.90;;;;;;;;;;6183886;23;20419;-78
2024/02/24 06:10:43;;;;;;;1999.90;999.90;;;;;;;;;;6183823;23;20017;-79
2024/02/24 06:13:10;;;;;;;1999.90;999.90;;;;;;;;;;6183639;23;20100;-79
2024/02/24 06:15:36;;;;;;;1999.90;999.90;;;;;;;;;;6183159;23;20458;-80
2024/02/24 06:18:03;;;;;;;1999.90;999.90;;;;;;;;;;6183362;23;20036;-82
2024/02/24 06:20:30;;;;;;;1999.90;999.90;;;;;;;;;;6183852;23;20031;-78
2024/02/24 06:22:58;;;;;;;1999.90;999.90;;;;;;;;;;6182849;23;20017;-79
2024/02/24 06:25:24;;;;;;;1999.90;999.90;;;;;;;;;;6183423;23;20096;-81
2024/02/24 06:27:51;;;;;;;1999.90;999.90;;;;;;;;;;6183650;23;20027;-79
2024/02/24 06:30:18;;;;;;;1999.90;999.90;;;;;;;;;;6184494;23;20021;-80
2024/02/24 06:32:44;;;;;;;1999.90;999.90;;;;;;;;;;6184747;23;20020;-79
2024/02/24 06:35:12;;;;;;;1999.90;999.90;;;;;;;;;;6186110;23;20554;-81
2024/02/24 06:37:39;;;;;;;1999.90;999.90;;;;;;;;;;6185574;23;20027;-79
2024/02/24 06:40:09;;;;;;;1999.90;999.90;;;;;;;;;;6185129;23;20387;-81
2024/02/24 06:42:35;;;;;;;1999.90;999.90;;;;;;;;;;6183518;23;20111;-79
2024/02/24 06:45:02;;;;;;;1999.90;999.90;;;;;;;;;;6183456;23;20017;-80
2024/02/24 06:47:29;;;;;;;1999.90;999.90;;;;;;;;;;6183528;23;20021;-78
2024/02/24 06:49:55;;;;;;;1999.90;999.90;;;;;;;;;;6183236;23;20021;-79
2024/02/24 06:52:22;;;;;;;1999.90;999.90;;;;;;;;;;6183340;23;20021;-79
2024/02/24 06:54:48;;;;;;;1999.90;999.90;;;;;;;;;;6183176;23;20043;-80
2024/02/24 06:57:16;;;;;;;1999.90;999.90;;;;;;;;;;6183066;23;20021;-82
2024/02/24 06:59:45;;;;;;;1999.90;999.90;;;;;;;;;;6182953;23;20024;-79
2024/02/24 07:02:11;;;;;;;1999.90;999.90;;;;;;;;;;6182560;23;20017;-79
2024/02/24 07:04:38;;;;;;;1999.90;999.90;;;;;;;;;;6183188;23;20028;-79
2024/02/24 07:07:07;;;;;;;1999.90;999.90;;;;;;;;;;6183434;23;20025;-79
2024/02/24 07:09:34;;;;;;;1999.90;999.90;;;;;;;;;;6183010;23;20029;-80
2024/02/24 07:12:00;;;;;;;1999.90;999.90;;;;;;;;;;6182872;23;20049;-80
2024/02/24 07:14:28;;;;;;;1999.90;999.90;;;;;;;;;;6182765;23;20028;-79
2024/02/24 07:16:55;;;;;;;1999.90;999.90;;;;;;;;;;6182971;23;20079;-80
2024/02/24 07:19:21;;;;;;;1999.90;999.90;;;;;;;;;;6183309;23;20096;-79
2024/02/24 07:21:48;;;;;;;1999.90;999.90;;;;;;;;;;6182901;23;20017;-82
2024/02/24 07:24:14;;;;;;;1999.90;999.90;;;;;;;;;;6183505;23;20099;-80
2024/02/24 07:26:42;;;;;;;1999.90;999.90;;;;;;;;;;6182625;23;20423;-80
2024/02/24 07:29:08;;;;;;;1999.90;999.90;;;;;;;;;;6182908;23;20428;-80
2024/02/24 07:31:37;;;;;;;1999.90;999.90;;;;;;;;;;6182843;23;20025;-80
2024/02/24 07:34:03;;;;;;;1999.90;999.90;;;;;;;;;;6182842;23;20476;-81
2024/02/24 07:36:30;;;;;;;1999.90;999.90;;;;;;;;;;6182758;23;20340;-80
2024/02/24 07:38:57;;;;;;;1999.90;999.90;;;;;;;;;;6182453;23;20028;-80
2024/02/24 07:41:24;;;;;;;1999.90;999.90;;;;;;;;;;6183426;23;20024;-79
2024/02/24 07:43:50;;;;;;;1999.90;999.90;;;;;;;;;;6183610;23;20017;-80
2024/02/24 07:46:27;;;;;;;1999.90;999.90;;;;;;;;;;6182493;23;20021;-80
2024/02/24 07:48:55;;;;;;;1999.90;999.90;;;;;;;;;;6182635;23;20025;-80
2024/02/24 07:51:21;;;;;;;1999.90;999.90;;;;;;;;;;6183188;23;20020;-80
2024/02/24 07:53:48;;;;;;;1999.90;999.90;;;;;;;;;;6182106;23;20464;-79
2024/02/24 07:56:15;;;;;;;1999.90;999.90;;;;;;;;;;6183518;23;20325;-80
2024/02/24 07:58:41;;;;;;;1999.90;999.90;;;;;;;;;;6184183;23;20824;-79
2024/02/24 08:01:08;;;;;;;1999.90;999.90;;;;;;;;;;6184245;23;20021;-80
2024/02/24 08:03:34;;;;;;;1999.90;999.90;;;;;;;;;;6184440;23;20083;-79
2024/02/24 08:06:02;;;;;;;1999.90;999.90;;;;;;;;;;6184713;23;20039;-80
2024/02/24 08:08:30;;;;;;;1999.90;999.90;;;;;;;;;;6184184;23;20102;-80
2024/02/24 08:10:56;;;;;;;1999.90;999.90;;;;;;;;;;6184111;23;20024;-80
2024/02/24 08:13:23;;;;;;;1999.90;999.90;;;;;;;;;;6184136;23;20028;-80
2024/02/24 08:15:49;;;;;;;1999.90;999.90;;;;;;;;;;6183938;23;20474;-80
2024/02/24 08:18:17;;;;;;;1999.90;999.90;;;;;;;;;;6183943;23;20027;-82
2024/02/24 08:20:43;;;;;;;1999.90;999.90;;;;;;;;;;6184084;23;20024;-80
2024/02/24 08:23:17;;;;;;;1999.90;999.90;;;;;;;;;;6184108;23;20073;-80
2024/02/24 08:25:43;;;;;;;1999.90;999.90;;;;;;;;;;6183828;23;20023;-80
2024/02/24 08:28:10;;;;;;;1999.90;999.90;;;;;;;;;;6184450;23;20031;-81
2024/02/24 08:30:36;;;;;;;1999.90;999.90;;;;;;;;;;6184140;23;20052;-80
2024/02/24 08:33:03;;;;;;;1999.90;999.90;;;;;;;;;;6183787;23;20460;-80
2024/02/24 08:35:29;;;;;;;1999.90;999.90;;;;;;;;;;6184246;23;20100;-81
2024/02/24 08:37:56;;;;;;;1999.90;999.90;;;;;;;;;;6183723;23;20023;-80
2024/02/24 08:40:24;;;;;;;1999.90;999.90;;;;;;;;;;6184298;23;20096;-80
2024/02/24 08:42:50;;;;;;;1999.90;999.90;;;;;;;;;;6183440;23;20470;-80
2024/02/24 08:45:17;;;;;;;1999.90;999.90;;;;;;;;;;6183750;23;20092;-80
2024/02/24 08:47:43;;;;;;;1999.90;999.90;;;;;;;;;;6183089;23;20025;-81
2024/02/24 08:50:10;;;;;;;1999.90;999.90;;;;;;;;;;6183380;23;20096;-81
2024/02/24 08:52:37;;;;;;;1999.90;999.90;;;;;;;;;;6183089;23;20052;-81
2024/02/24 08:55:04;;;;;;;1999.90;999.90;;;;;;;;;;6183494;23;20035;-81
2024/02/24 08:57:32;;;;;;;1999.90;999.90;;;;;;;;;;6182959;23;20340;-80
2024/02/24 08:59:59;;;;;;;1999.90;999.90;;;;;;;;;;6183230;23;20073;-81
2024/02/24 09:02:25;;;;;;;1999.90;999.90;;;;;;;;;;6181971;23;20021;-80
2024/02/24 09:04:52;;;;;;;1999.90;999.90;;;;;;;;;;6182754;23;20021;-80
2024/02/24 09:07:20;;;;;;;1999.90;999.90;;;;;;;;;;6182516;23;20079;-81
2024/02/24 09:09:46;;;;;;;1999.90;999.90;;;;;;;;;;6182879;23;20049;-81
2024/02/24 09:12:13;;;;;;;1999.90;999.90;;;;;;;;;;6182649;23;20109;-81
2024/02/24 09:14:41;;;;;;;1999.90;999.90;;;;;;;;;;6182721;23;20021;-81
2024/02/24 09:17:07;;;;;;;1999.90;999.90;;;;;;;;;;6182393;23;20031;-82
2024/02/24 09:19:34;;;;;;;1999.90;999.90;;;;;;;;;;6182347;23;20060;-81
2024/02/24 09:22:00;;;;;;;1999.90;999.90;;;;;;;;;;6182139;23;20325;-82
2024/02/24 09:24:27;;;;;;;1999.90;999.90;;;;;;;;;;6182438;23;20017;-81
2024/02/24 09:26:53;;;;;;;1999.90;999.90;;;;;;;;;;6182291;23;20340;-81
2024/02/24 09:29:21;;;;;;;1999.90;999.90;;;;;;;;;;6182428;23;20027;-80
2024/02/24 09:31:48;;;;;;;1999.90;999.90;;;;;;;;;;6182346;23;20021;-82
2024/02/24 09:34:16;;;;;;;1999.90;999.90;;;;;;;;;;6183093;23;20025;-82
2024/02/24 09:36:43;;;;;;;1999.90;999.90;;;;;;;;;;6182721;23;20044;-82
2024/02/24 09:39:11;;;;;;;1999.90;999.90;;;;;;;;;;6182453;23;20032;-83
2024/02/24 09:41:37;;;;;;;1999.90;999.90;;;;;;;;;;6182437;23;20658;-82
2024/02/24 09:44:05;;;;;;;1999.90;999.90;;;;;;;;;;6182513;23;20440;-82
2024/02/24 09:46:33;;;;;;;1999.90;999.90;;;;;;;;;;6182001;23;20027;-82
2024/02/24 09:49:01;;;;;;;1999.90;999.90;;;;;;;;;;6182417;23;20099;-81
2024/02/24 09:51:28;;;;;;;1999.90;999.90;;;;;;;;;;6182580;23;20154;-81
2024/02/24 09:54:01;;;;;;;1999.90;999.90;;;;;;;;;;6182545;23;20036;-81
2024/02/24 09:56:29;;;;;;;1999.90;999.90;;;;;;;;;;6182568;23;20529;-83
2024/02/24 09:58:56;;;;;;;1999.90;999.90;;;;;;;;;;6182907;23;20460;-81
2024/02/24 10:01:22;;;;;;;1999.90;999.90;;;;;;;;;;6182494;23;20087;-84
2024/02/24 10:03:49;;;;;;;1999.90;999.90;;;;;;;;;;6182708;23;20055;-81
2024/02/24 10:06:17;;;;;;;1999.90;999.90;;;;;;;;;;6182774;23;20025;-81
2024/02/24 10:08:45;;;;;;;1999.90;999.90;;;;;;;;;;6182848;23;20025;-82
2024/02/24 10:11:13;;;;;;;1999.90;999.90;;;;;;;;;;6183335;23;20025;-82
2024/02/24 10:13:39;;;;;;;1999.90;999.90;;;;;;;;;;6183287;23;20035;-82
2024/02/24 10:16:07;;;;;;;1999.90;999.90;;;;;;;;;;6183444;23;20021;-82
2024/02/24 10:18:33;;;;;;;1999.90;999.90;;;;;;;;;;6183554;23;20067;-82
2024/02/24 10:21:00;;;;;;;1999.90;999.90;;;;;;;;;;6183222;23;20025;-82
2024/02/24 10:23:28;;;;;;;1999.90;999.90;;;;;;;;;;6183339;23;20028;-84
2024/02/24 10:25:57;;;;;;;1999.90;999.90;;;;;;;;;;6183424;23;20151;-82
2024/02/24 10:28:25;;;;;;;1999.90;999.90;;;;;;;;;;6183171;23;20032;-83
2024/02/24 10:30:51;;;;;;;1999.90;999.90;;;;;;;;;;6183507;23;20052;-82
2024/02/24 10:33:18;;;;;;;1999.90;999.90;;;;;;;;;;6182709;23;20021;-83
2024/02/24 10:35:45;;;;;;;1999.90;999.90;;;;;;;;;;6183422;23;20021;-83
2024/02/24 10:38:13;;;;;;;1999.90;999.90;;;;;;;;;;6182595;23;20025;-82
2024/02/24 10:40:41;;;;;;;1999.90;999.90;;;;;;;;;;6183029;23;20119;-82
2024/02/24 10:43:08;;;;;;;1999.90;999.90;;;;;;;;;;6182964;23;20024;-81
2024/02/24 10:45:35;;;;;;;1999.90;999.90;;;;;;;;;;6183448;23;20096;-82
2024/02/24 10:48:01;;;;;;;1999.90;999.90;;;;;;;;;;6183002;23;20031;-82
2024/02/24 10:50:28;;;;;;;1999.90;999.90;;;;;;;;;;6182494;23;20021;-83
2024/02/24 10:52:55;;;;;;;1999.90;999.90;;;;;;;;;;6183101;23;20100;-84
2024/02/24 10:55:23;;;;;;;1999.90;999.90;;;;;;;;;;6183621;23;20017;-82
2024/02/24 10:57:53;;;;;;;1999.90;999.90;;;;;;;;;;6181203;23;20470;-83
2024/02/24 11:00:29;;;;;;;1999.90;999.90;;;;;;;;;;6182110;23;20024;-83
2024/02/24 11:02:55;;;;;;;1999.90;999.90;;;;;;;;;;6182878;23;20052;-85
2024/02/24 11:05:22;;;;;;;1999.90;999.90;;;;;;;;;;6183387;23;20084;-86
2024/02/24 11:07:48;;;;;;;1999.90;999.90;;;;;;;;;;6183404;23;20021;-87
2024/02/24 11:10:16;;;;;;;1999.90;999.90;;;;;;;;;;6183086;23;20021;-87
2024/02/24 11:12:43;;;;;;;1999.90;999.90;;;;;;;;;;6182750;23;20024;-84
2024/02/24 11:15:17;;;;;;;1999.90;999.90;;;;;;;;;;6188749;23;20498;-85
2024/02/24 11:17:48;;;;;;;1999.90;999.90;;;;;;;;;;6191332;23;20025;-89
2024/02/24 11:20:55;;;;;;;1999.90;999.90;;;;;;;;;;6189719;23;20463;-83
2024/02/24 11:23:22;;;;;;;1999.90;999.90;;;;;;;;;;6169937;23;20651;-81
2024/02/24 11:25:49;;;;;;;1999.90;999.90;;;;;;;;;;6182051;23;20534;-84
2024/02/24 11:28:22;;;;;;;1999.90;999.90;;;;;;;;;;6181579;23;20031;-82
2024/02/24 11:30:55;;;;;;;1999.90;999.90;;;;;;;;;;6181077;23;20027;-83
2024/02/24 11:33:21;;;;;;;1999.90;999.90;;;;;;;;;;6181110;23;20021;-83
2024/02/24 11:35:49;;;;;;;1999.90;999.90;;;;;;;;;;6181417;23;20024;-84
2024/02/24 11:38:16;;;;;;;1999.90;999.90;;;;;;;;;;6180817;23;20538;-84
2024/02/24 11:40:46;;;;;;;1999.90;999.90;;;;;;;;;;6181590;23;20017;-81
2024/02/24 11:43:13;;;;;;;1999.90;999.90;;;;;;;;;;6181545;23;20021;-82
2024/02/24 11:45:45;;;;;;;1999.90;999.90;;;;;;;;;;6181748;23;20021;-82
2024/02/24 11:48:13;;;;;;;1999.90;999.90;;;;;;;;;;6180553;23;20025;-83
2024/02/24 11:50:39;;;;;;;1999.90;999.90;;;;;;;;;;6180978;23;20028;-82
2024/02/24 11:53:07;;;;;;;1999.90;999.90;;;;;;;;;;6181008;23;20028;-84
2024/02/24 11:55:33;;;;;;;1999.90;999.90;;;;;;;;;;6181272;23;20065;-82
2024/02/24 11:58:03;;;;;;;1999.90;999.90;;;;;;;;;;6180977;23;20029;-82
2024/02/24 12:00:30;;;;;;;1999.90;999.90;;;;;;;;;;6181048;23;20380;-82
2024/02/24 12:02:56;;;;;;;1999.90;999.90;;;;;;;;;;6180906;23;20096;-82
2024/02/24 12:05:25;;;;;;;1999.90;999.90;;;;;;;;;;6181859;23;20336;-83
2024/02/24 12:07:51;;;;;;;1999.90;999.90;;;;;;;;;;6181643;23;20025;-83
2024/02/24 12:10:18;;;;;;;1999.90;999.90;;;;;;;;;;6180920;23;20440;-82
2024/02/24 12:12:44;;;;;;;1999.90;999.90;;;;;;;;;;6180978;23;20020;-82
2024/02/24 12:15:14;;;;;;;1999.90;999.90;;;;;;;;;;6180789;23;20025;-81
2024/02/24 12:17:43;;;;;;;1999.90;999.90;;;;;;;;;;6180736;23;20051;-82
2024/02/24 12:20:10;;;;;;;1999.90;999.90;;;;;;;;;;6180888;23;20017;-81
2024/02/24 12:22:40;;;;;;;1999.90;999.90;;;;;;;;;;6181283;23;20044;-82
2024/02/24 12:25:13;;;;;;;1999.90;999.90;;;;;;;;;;6180892;23;20029;-82
2024/02/24 12:27:40;;;;;;;1999.90;999.90;;;;;;;;;;6181010;23;20027;-83
2024/02/24 12:30:08;;;;;;;1999.90;999.90;;;;;;;;;;6181060;23;20036;-82
2024/02/24 12:32:35;;;;;;;1999.90;999.90;;;;;;;;;;6180949;23;20027;-82
2024/02/24 12:35:03;;;;;;;1999.90;999.90;;;;;;;;;;6180989;23;20025;-84
2024/02/24 12:37:33;;;;;;;1999.90;999.90;;;;;;;;;;6181370;23;20027;-81
2024/02/24 12:40:01;;;;;;;1999.90;999.90;;;;;;;;;;6181361;23;20079;-82
2024/02/24 12:42:27;;;;;;;1999.90;999.90;;;;;;;;;;6181597;23;20021;-80
2024/02/24 12:44:54;;;;;;;1999.90;999.90;;;;;;;;;;6183353;23;20017;-85
2024/02/24 12:47:21;;;;;;;1999.90;999.90;;;;;;;;;;6183128;23;20460;-82
2024/02/24 12:49:47;;;;;;;1999.90;999.90;;;;;;;;;;6183177;23;20025;-81
2024/02/24 12:52:14;;;;;;;1999.90;999.90;;;;;;;;;;6183705;23;20017;-82
2024/02/24 12:54:40;;;;;;;1999.90;999.90;;;;;;;;;;6181700;23;20464;-81
2024/02/24 12:57:08;;;;;;;1999.90;999.90;;;;;;;;;;6182173;23;20103;-83
2024/02/24 12:59:35;;;;;;;1999.90;999.90;;;;;;;;;;6181730;23;20421;-82
2024/02/24 13:02:02;;;;;;;1999.90;999.90;;;;;;;;;;6182596;23;20028;-81
2024/02/24 13:04:28;;;;;;;1999.90;999.90;;;;;;;;;;6181887;23;20317;-82
2024/02/24 13:06:55;;;;;;;1999.90;999.90;;;;;;;;;;6181512;23;20029;-83
2024/02/24 13:09:22;;;;;;;1999.90;999.90;;;;;;;;;;6182449;23;20024;-81
2024/02/24 13:11:49;;;;;;;1999.90;999.90;;;;;;;;;;6182395;23;20017;-83
2024/02/24 13:14:17;;;;;;;1999.90;999.90;;;;;;;;;;6182000;23;20021;-79
2024/02/24 13:16:44;;;;;;;1999.90;999.90;;;;;;;;;;6182234;23;20409;-80
2024/02/24 13:19:10;;;;;;;1999.90;999.90;;;;;;;;;;6181467;23;20063;-80
2024/02/24 13:21:37;;;;;;;1999.90;999.90;;;;;;;;;;6182663;23;20100;-80
2024/02/24 13:24:04;;;;;;;1999.90;999.90;;;;;;;;;;6182703;23;20028;-79
2024/02/24 13:26:31;;;;;;;1999.90;999.90;;;;;;;;;;6182964;23;20462;-79
2024/02/24 13:28:57;;;;;;;1999.90;999.90;;;;;;;;;;6183068;23;20112;-82
2024/02/24 13:31:25;;;;;;;1999.90;999.90;;;;;;;;;;6181712;23;20031;-82
2024/02/24 13:33:54;;;;;;;1999.90;999.90;;;;;;;;;;6181932;23;20368;-81
2024/02/24 13:36:20;;;;;;;1999.90;999.90;;;;;;;;;;6182277;23;20083;-80
2024/02/24 13:38:47;;;;;;;1999.90;999.90;;;;;;;;;;6182023;23;20025;-81
2024/02/24 13:41:13;;;;;;;1999.90;999.90;;;;;;;;;;6182232;23;20027;-81